sensor_id;sensor_type;location;lat;lon;timestamp;temperature;humidity
6948;DHT22;3513;47.664;9.162;2023-03-21T00:00:19;7.60;99.90
6948;DHT22;3513;47.664;9.162;2023-03-21T00:02:45;7.60;99.90
6948;DHT22;3513;47.664;9.162;2023-03-21T00:05:11;7.50;99.90
6948;DHT22;3513;47.664;9.162;2023-03-21T00:07:36;7.40;99.90
6948;DHT22;3513;47.664;9.162;2023-03-21T00:10:02;7.30;99.90
6948;DHT22;3513;47.664;9.162;2023-03-21T00:12:28;7.20;99.90
6948;DHT22;3513;47.664;9.162;2023-03-21T00:14:57;7.10;99.90
6948;DHT22;3513;47.664;9.162;2023-03-21T00:17:29;7.00;99.90
6948;DHT22;3513;47.664;9.162;2023-03-21T00:20:00;7.00;99.90
6948;DHT22;3513;47.664;9.162;2023-03-21T00:22:26;7.00;99.90
6948;DHT22;3513;47.664;9.162;2023-03-21T00:24:53;6.90;99.90
6948;DHT22;3513;47.664;9.162;2023-03-21T00:27:18;6.90;99.90
6948;DHT22;3513;47.664;9.162;2023-03-21T00:29:45;6.80;99.90
6948;DHT22;3513;47.664;9.162;2023-03-21T00:32:11;6.80;99.90
6948;DHT22;3513;47.664;9.162;2023-03-21T00:34:36;6.80;99.90
6948;DHT22;3513;47.664;9.162;2023-03-21T00:37:05;6.70;99.90
6948;DHT22;3513;47.664;9.162;2023-03-21T00:39:32;6.70;99.90
6948;DHT22;3513;47.664;9.162;2023-03-21T00:41:58;6.70;99.90
6948;DHT22;3513;47.664;9.162;2023-03-21T00:44:23;6.70;99.90
6948;DHT22;3513;47.664;9.162;2023-03-21T00:46:50;6.60;99.90
6948;DHT22;3513;47.664;9.162;2023-03-21T00:49:15;6.60;99.90
6948;DHT22;3513;47.664;9.162;2023-03-21T00:51:41;6.60;99.90
6948;DHT22;3513;47.664;9.162;2023-03-21T00:54:09;6.60;99.90
6948;DHT22;3513;47.664;9.162;2023-03-21T00:56:35;6.60;99.90
6948;DHT22;3513;47.664;9.162;2023-03-21T00:59:01;6.60;99.90
6948;DHT22;3513;47.664;9.162;2023-03-21T01:01:26;6.60;99.90
6948;DHT22;3513;47.664;9.162;2023-03-21T01:03:57;6.50;99.90
6948;DHT22;3513;47.664;9.162;2023-03-21T01:06:30;6.50;99.90
6948;DHT22;3513;47.664;9.162;2023-03-21T01:08:56;6.50;99.90
6948;DHT22;3513;47.664;9.162;2023-03-21T01:11:24;6.50;99.90
6948;DHT22;3513;47.664;9.162;2023-03-21T01:13:50;6.50;99.90
6948;DHT22;3513;47.664;9.162;2023-03-21T01:16:16;6.50;99.90
6948;DHT22;3513;47.664;9.162;2023-03-21T01:18:42;6.60;99.90
6948;DHT22;3513;47.664;9.162;2023-03-21T01:21:10;6.60;99.90
6948;DHT22;3513;47.664;9.162;2023-03-21T01:23:37;6.50;99.90
6948;DHT22;3513;47.664;9.162;2023-03-21T01:26:03;6.50;99.90
6948;DHT22;3513;47.664;9.162;2023-03-21T01:28:30;6.50;99.90
6948;DHT22;3513;47.664;9.162;2023-03-21T01:30:56;6.50;99.90
6948;DHT22;3513;47.664;9.162;2023-03-21T01:33:22;6.50;99.90
6948;DHT22;3513;47.664;9.162;2023-03-21T01:35:47;6.40;99.90
6948;DHT22;3513;47.664;9.162;2023-03-21T01:38:13;6.30;99.90
6948;DHT22;3513;47.664;9.162;2023-03-21T01:40:40;6.30;99.90
6948;DHT22;3513;47.664;9.162;2023-03-21T01:46:07;6.20;99.90
6948;DHT22;3513;47.664;9.162;2023-03-21T01:48:37;6.20;99.90
6948;DHT22;3513;47.664;9.162;2023-03-21T01:51:04;6.20;99.90
6948;DHT22;3513;47.664;9.162;2023-03-21T01:53:32;6.20;99.90
6948;DHT22;3513;47.664;9.162;2023-03-21T01:56:03;6.20;99.90
6948;DHT22;3513;47.664;9.162;2023-03-21T01:58:31;6.20;99.90
6948;DHT22;3513;47.664;9.162;2023-03-21T02:00:59;6.20;99.90
6948;DHT22;3513;47.664;9.162;2023-03-21T02:03:25;6.20;99.90
6948;DHT22;3513;47.664;9.162;2023-03-21T02:05:59;6.20;99.90
6948;DHT22;3513;47.664;9.162;2023-03-21T02:08:27;6.20;99.90
6948;DHT22;3513;47.664;9.162;2023-03-21T02:10:53;6.10;99.90
6948;DHT22;3513;47.664;9.162;2023-03-21T02:13:19;6.10;99.90
6948;DHT22;3513;47.664;9.162;2023-03-21T02:15:58;6.00;99.90
6948;DHT22;3513;47.664;9.162;2023-03-21T02:18:40;6.00;99.90
6948;DHT22;3513;47.664;9.162;2023-03-21T02:29:41;5.90;99.90
6948;DHT22;3513;47.664;9.162;2023-03-21T02:37:34;5.90;99.90
6948;DHT22;3513;47.664;9.162;2023-03-21T02:40:05;5.90;99.90
6948;DHT22;3513;47.664;9.162;2023-03-21T02:45:55;5.70;99.90
6948;DHT22;3513;47.664;9.162;2023-03-21T02:48:38;6.40;99.90
6948;DHT22;3513;47.664;9.162;2023-03-21T02:51:07;5.60;99.90
6948;DHT22;3513;47.664;9.162;2023-03-21T02:53:36;5.60;99.90
6948;DHT22;3513;47.664;9.162;2023-03-21T02:56:04;5.50;99.90
6948;DHT22;3513;47.664;9.162;2023-03-21T02:58:34;5.40;99.90
6948;DHT22;3513;47.664;9.162;2023-03-21T03:01:01;5.30;99.90
6948;DHT22;3513;47.664;9.162;2023-03-21T03:03:27;5.30;99.90
6948;DHT22;3513;47.664;9.162;2023-03-21T03:05:55;5.20;99.90
6948;DHT22;3513;47.664;9.162;2023-03-21T03:08:46;5.20;99.90
6948;DHT22;3513;47.664;9.162;2023-03-21T03:11:27;5.10;99.90
6948;DHT22;3513;47.664;9.162;2023-03-21T03:20:14;5.10;99.90
6948;DHT22;3513;47.664;9.162;2023-03-21T03:22:51;5.10;99.90
6948;DHT22;3513;47.664;9.162;2023-03-21T03:25:29;5.20;99.90
6948;DHT22;3513;47.664;9.162;2023-03-21T03:27:57;5.20;99.90
6948;DHT22;3513;47.664;9.162;2023-03-21T03:30:25;5.20;99.90
6948;DHT22;3513;47.664;9.162;2023-03-21T03:32:56;5.20;99.90
6948;DHT22;3513;47.664;9.162;2023-03-21T03:35:24;5.10;99.90
6948;DHT22;3513;47.664;9.162;2023-03-21T03:37:54;5.10;99.90
6948;DHT22;3513;47.664;9.162;2023-03-21T03:40:40;5.10;99.90
6948;DHT22;3513;47.664;9.162;2023-03-21T03:43:10;5.10;99.90
6948;DHT22;3513;47.664;9.162;2023-03-21T03:45:48;5.00;99.90
6948;DHT22;3513;47.664;9.162;2023-03-21T03:48:33;5.00;99.90
6948;DHT22;3513;47.664;9.162;2023-03-21T03:51:05;5.00;99.90
6948;DHT22;3513;47.664;9.162;2023-03-21T03:53:36;4.90;99.90
6948;DHT22;3513;47.664;9.162;2023-03-21T03:56:03;4.90;99.90
6948;DHT22;3513;47.664;9.162;2023-03-21T03:58:29;4.80;99.90
6948;DHT22;3513;47.664;9.162;2023-03-21T04:00:56;4.80;99.90
6948;DHT22;3513;47.664;9.162;2023-03-21T04:03:22;4.80;99.90
6948;DHT22;3513;47.664;9.162;2023-03-21T04:05:48;4.70;99.90
6948;DHT22;3513;47.664;9.162;2023-03-21T04:08:15;4.80;99.90
6948;DHT22;3513;47.664;9.162;2023-03-21T04:10:41;4.80;99.90
6948;DHT22;3513;47.664;9.162;2023-03-21T04:13:07;4.80;99.90
6948;DHT22;3513;47.664;9.162;2023-03-21T04:15:34;4.90;99.90
6948;DHT22;3513;47.664;9.162;2023-03-21T04:17:59;4.90;99.90
6948;DHT22;3513;47.664;9.162;2023-03-21T04:20:25;4.90;99.90
6948;DHT22;3513;47.664;9.162;2023-03-21T04:22:50;4.90;99.90
6948;DHT22;3513;47.664;9.162;2023-03-21T04:25:16;4.90;99.90
6948;DHT22;3513;47.664;9.162;2023-03-21T04:27:42;4.90;99.90
6948;DHT22;3513;47.664;9.162;2023-03-21T04:30:08;4.90;99.90
6948;DHT22;3513;47.664;9.162;2023-03-21T04:32:36;4.90;99.90
6948;DHT22;3513;47.664;9.162;2023-03-21T04:35:05;4.90;99.90
6948;DHT22;3513;47.664;9.162;2023-03-21T04:37:30;4.90;99.90
6948;DHT22;3513;47.664;9.162;2023-03-21T04:39:58;4.80;99.90
6948;DHT22;3513;47.664;9.162;2023-03-21T04:42:24;4.90;99.90
6948;DHT22;3513;47.664;9.162;2023-03-21T04:44:49;4.90;99.90
6948;DHT22;3513;47.664;9.162;2023-03-21T04:47:16;5.00;99.90
6948;DHT22;3513;47.664;9.162;2023-03-21T04:49:45;5.00;99.90
6948;DHT22;3513;47.664;9.162;2023-03-21T04:52:12;5.00;99.90
6948;DHT22;3513;47.664;9.162;2023-03-21T04:54:38;5.00;99.90
6948;DHT22;3513;47.664;9.162;2023-03-21T04:57:04;5.10;99.90
6948;DHT22;3513;47.664;9.162;2023-03-21T04:59:29;5.10;99.90
6948;DHT22;3513;47.664;9.162;2023-03-21T05:01:55;5.10;99.90
6948;DHT22;3513;47.664;9.162;2023-03-21T05:04:23;5.20;99.90
6948;DHT22;3513;47.664;9.162;2023-03-21T05:06:50;5.20;99.90
6948;DHT22;3513;47.664;9.162;2023-03-21T05:09:16;5.20;99.90
6948;DHT22;3513;47.664;9.162;2023-03-21T05:11:41;5.20;99.90
6948;DHT22;3513;47.664;9.162;2023-03-21T05:14:10;5.20;99.90
6948;DHT22;3513;47.664;9.162;2023-03-21T05:16:37;5.30;99.90
6948;DHT22;3513;47.664;9.162;2023-03-21T05:19:03;5.20;99.90
6948;DHT22;3513;47.664;9.162;2023-03-21T05:21:30;5.30;99.90
6948;DHT22;3513;47.664;9.162;2023-03-21T05:24:07;5.30;99.90
6948;DHT22;3513;47.664;9.162;2023-03-21T05:26:37;5.30;99.90
6948;DHT22;3513;47.664;9.162;2023-03-21T05:29:03;5.40;99.90
6948;DHT22;3513;47.664;9.162;2023-03-21T05:31:28;5.40;99.90
6948;DHT22;3513;47.664;9.162;2023-03-21T05:33:54;5.40;99.90
6948;DHT22;3513;47.664;9.162;2023-03-21T05:36:19;5.40;99.90
6948;DHT22;3513;47.664;9.162;2023-03-21T05:38:45;5.30;99.90
6948;DHT22;3513;47.664;9.162;2023-03-21T05:41:16;5.30;99.90
6948;DHT22;3513;47.664;9.162;2023-03-21T05:43:42;5.30;99.90
6948;DHT22;3513;47.664;9.162;2023-03-21T05:46:07;5.40;99.90
6948;DHT22;3513;47.664;9.162;2023-03-21T05:48:34;5.30;99.90
6948;DHT22;3513;47.664;9.162;2023-03-21T05:51:00;5.30;99.90
6948;DHT22;3513;47.664;9.162;2023-03-21T05:53:26;5.30;99.90
6948;DHT22;3513;47.664;9.162;2023-03-21T05:55:52;5.30;99.90
6948;DHT22;3513;47.664;9.162;2023-03-21T05:58:17;5.50;99.90
6948;DHT22;3513;47.664;9.162;2023-03-21T06:00:43;5.50;99.90
6948;DHT22;3513;47.664;9.162;2023-03-21T06:03:09;5.60;99.90
6948;DHT22;3513;47.664;9.162;2023-03-21T06:05:34;5.60;99.90
6948;DHT22;3513;47.664;9.162;2023-03-21T06:08:00;5.60;99.90
6948;DHT22;3513;47.664;9.162;2023-03-21T06:10:25;5.60;99.90
6948;DHT22;3513;47.664;9.162;2023-03-21T06:12:51;5.60;99.90
6948;DHT22;3513;47.664;9.162;2023-03-21T06:15:16;5.70;99.90
6948;DHT22;3513;47.664;9.162;2023-03-21T06:17:42;5.70;99.90
6948;DHT22;3513;47.664;9.162;2023-03-21T06:20:08;5.80;99.90
6948;DHT22;3513;47.664;9.162;2023-03-21T06:22:35;5.90;99.90
6948;DHT22;3513;47.664;9.162;2023-03-21T06:25:01;6.00;99.90
6948;DHT22;3513;47.664;9.162;2023-03-21T06:27:26;6.10;99.90
6948;DHT22;3513;47.664;9.162;2023-03-21T06:29:52;6.10;99.90
6948;DHT22;3513;47.664;9.162;2023-03-21T06:32:18;6.20;99.90
6948;DHT22;3513;47.664;9.162;2023-03-21T06:34:43;6.30;99.90
6948;DHT22;3513;47.664;9.162;2023-03-21T06:37:09;6.30;99.90
6948;DHT22;3513;47.664;9.162;2023-03-21T06:39:35;6.40;99.90
6948;DHT22;3513;47.664;9.162;2023-03-21T06:42:01;6.50;99.90
6948;DHT22;3513;47.664;9.162;2023-03-21T06:44:27;6.50;99.90
6948;DHT22;3513;47.664;9.162;2023-03-21T06:46:53;6.60;99.90
6948;DHT22;3513;47.664;9.162;2023-03-21T06:49:19;6.60;99.90
6948;DHT22;3513;47.664;9.162;2023-03-21T06:51:45;6.70;99.90
6948;DHT22;3513;47.664;9.162;2023-03-21T06:54:11;6.80;99.90
6948;DHT22;3513;47.664;9.162;2023-03-21T06:56:39;6.90;99.90
6948;DHT22;3513;47.664;9.162;2023-03-21T06:59:04;7.00;99.90
6948;DHT22;3513;47.664;9.162;2023-03-21T07:01:30;7.00;99.90
6948;DHT22;3513;47.664;9.162;2023-03-21T07:03:56;7.10;99.90
6948;DHT22;3513;47.664;9.162;2023-03-21T07:06:25;7.10;99.90
6948;DHT22;3513;47.664;9.162;2023-03-21T07:08:51;7.10;99.90
6948;DHT22;3513;47.664;9.162;2023-03-21T07:11:18;7.10;99.90
6948;DHT22;3513;47.664;9.162;2023-03-21T07:13:43;7.20;99.90
6948;DHT22;3513;47.664;9.162;2023-03-21T07:16:10;7.30;99.90
6948;DHT22;3513;47.664;9.162;2023-03-21T07:18:35;7.40;99.90
6948;DHT22;3513;47.664;9.162;2023-03-21T07:21:01;7.40;99.90
6948;DHT22;3513;47.664;9.162;2023-03-21T07:23:26;7.30;99.90
6948;DHT22;3513;47.664;9.162;2023-03-21T07:25:53;7.40;99.90
6948;DHT22;3513;47.664;9.162;2023-03-21T07:28:19;7.50;99.90
6948;DHT22;3513;47.664;9.162;2023-03-21T07:30:50;7.60;99.90
6948;DHT22;3513;47.664;9.162;2023-03-21T07:33:15;7.60;99.90
6948;DHT22;3513;47.664;9.162;2023-03-21T07:35:41;7.70;99.90
6948;DHT22;3513;47.664;9.162;2023-03-21T07:38:06;7.80;99.90
6948;DHT22;3513;47.664;9.162;2023-03-21T07:40:32;7.90;99.90
6948;DHT22;3513;47.664;9.162;2023-03-21T07:42:58;7.90;99.90
6948;DHT22;3513;47.664;9.162;2023-03-21T07:45:24;8.00;99.90
6948;DHT22;3513;47.664;9.162;2023-03-21T07:47:52;8.20;99.90
6948;DHT22;3513;47.664;9.162;2023-03-21T07:50:17;8.30;99.90
6948;DHT22;3513;47.664;9.162;2023-03-21T07:52:43;8.40;99.90
6948;DHT22;3513;47.664;9.162;2023-03-21T07:55:09;8.50;99.90
6948;DHT22;3513;47.664;9.162;2023-03-21T07:57:35;8.60;99.90
6948;DHT22;3513;47.664;9.162;2023-03-21T08:00:02;8.60;99.90
6948;DHT22;3513;47.664;9.162;2023-03-21T08:02:29;8.80;99.90
6948;DHT22;3513;47.664;9.162;2023-03-21T08:04:54;8.80;99.90
6948;DHT22;3513;47.664;9.162;2023-03-21T08:07:20;8.90;99.90
6948;DHT22;3513;47.664;9.162;2023-03-21T08:09:46;8.90;99.90
6948;DHT22;3513;47.664;9.162;2023-03-21T08:12:12;9.00;99.90
6948;DHT22;3513;47.664;9.162;2023-03-21T08:14:37;9.00;99.90
6948;DHT22;3513;47.664;9.162;2023-03-21T08:17:04;9.10;99.90
6948;DHT22;3513;47.664;9.162;2023-03-21T08:19:30;9.10;99.90
6948;DHT22;3513;47.664;9.162;2023-03-21T08:21:56;9.00;99.90
6948;DHT22;3513;47.664;9.162;2023-03-21T08:24:26;9.00;99.90
6948;DHT22;3513;47.664;9.162;2023-03-21T08:26:52;9.00;99.90
6948;DHT22;3513;47.664;9.162;2023-03-21T08:29:18;8.90;99.90
6948;DHT22;3513;47.664;9.162;2023-03-21T08:31:43;8.90;99.90
6948;DHT22;3513;47.664;9.162;2023-03-21T08:34:09;8.90;99.90
6948;DHT22;3513;47.664;9.162;2023-03-21T08:36:36;8.90;99.90
6948;DHT22;3513;47.664;9.162;2023-03-21T08:39:05;9.00;99.90
6948;DHT22;3513;47.664;9.162;2023-03-21T08:41:31;9.10;99.90
6948;DHT22;3513;47.664;9.162;2023-03-21T08:43:57;9.20;99.90
6948;DHT22;3513;47.664;9.162;2023-03-21T08:46:23;9.40;99.90
6948;DHT22;3513;47.664;9.162;2023-03-21T08:48:48;9.60;99.90
6948;DHT22;3513;47.664;9.162;2023-03-21T08:51:15;9.70;99.80
6948;DHT22;3513;47.664;9.162;2023-03-21T08:53:41;9.90;99.50
6948;DHT22;3513;47.664;9.162;2023-03-21T08:56:08;10.00;98.20
6948;DHT22;3513;47.664;9.162;2023-03-21T08:58:35;10.10;97.50
6948;DHT22;3513;47.664;9.162;2023-03-21T09:01:01;10.30;97.60
6948;DHT22;3513;47.664;9.162;2023-03-21T09:03:26;10.60;97.00
6948;DHT22;3513;47.664;9.162;2023-03-21T09:05:53;10.80;96.30
6948;DHT22;3513;47.664;9.162;2023-03-21T09:08:19;11.00;95.90
6948;DHT22;3513;47.664;9.162;2023-03-21T09:10:48;11.00;94.30
6948;DHT22;3513;47.664;9.162;2023-03-21T09:13:16;11.00;93.90
6948;DHT22;3513;47.664;9.162;2023-03-21T09:15:42;11.20;93.90
6948;DHT22;3513;47.664;9.162;2023-03-21T09:18:08;11.30;93.70
6948;DHT22;3513;47.664;9.162;2023-03-21T09:20:44;11.40;93.30
6948;DHT22;3513;47.664;9.162;2023-03-21T09:23:11;11.60;93.20
6948;DHT22;3513;47.664;9.162;2023-03-21T09:25:37;11.70;92.30
6948;DHT22;3513;47.664;9.162;2023-03-21T09:28:04;11.70;92.40
6948;DHT22;3513;47.664;9.162;2023-03-21T09:30:31;11.80;92.70
6948;DHT22;3513;47.664;9.162;2023-03-21T09:32:59;11.90;92.60
6948;DHT22;3513;47.664;9.162;2023-03-21T09:35:25;12.10;92.60
6948;DHT22;3513;47.664;9.162;2023-03-21T09:37:53;12.20;92.00
6948;DHT22;3513;47.664;9.162;2023-03-21T09:40:26;12.20;91.20
6948;DHT22;3513;47.664;9.162;2023-03-21T09:43:21;12.20;91.80
6948;DHT22;3513;47.664;9.162;2023-03-21T09:45:57;12.30;91.50
6948;DHT22;3513;47.664;9.162;2023-03-21T09:49:03;12.30;91.00
6948;DHT22;3513;47.664;9.162;2023-03-21T09:51:37;12.30;90.50
6948;DHT22;3513;47.664;9.162;2023-03-21T09:54:11;12.30;91.10
6948;DHT22;3513;47.664;9.162;2023-03-21T09:56:40;12.60;91.20
6948;DHT22;3513;47.664;9.162;2023-03-21T09:59:09;13.00;91.00
6948;DHT22;3513;47.664;9.162;2023-03-21T10:01:40;13.40;90.60
6948;DHT22;3513;47.664;9.162;2023-03-21T10:04:11;13.70;88.60
6948;DHT22;3513;47.664;9.162;2023-03-21T10:06:41;14.00;87.40
6948;DHT22;3513;47.664;9.162;2023-03-21T10:09:18;14.20;86.40
6948;DHT22;3513;47.664;9.162;2023-03-21T10:16:48;14.80;83.80
6948;DHT22;3513;47.664;9.162;2023-03-21T10:19:17;15.00;82.00
6948;DHT22;3513;47.664;9.162;2023-03-21T10:21:48;15.10;81.20
6948;DHT22;3513;47.664;9.162;2023-03-21T10:24:23;15.20;80.50
6948;DHT22;3513;47.664;9.162;2023-03-21T10:26:51;15.30;79.90
6948;DHT22;3513;47.664;9.162;2023-03-21T10:29:19;15.40;79.20
6948;DHT22;3513;47.664;9.162;2023-03-21T10:31:48;15.50;79.30
6948;DHT22;3513;47.664;9.162;2023-03-21T10:34:35;15.70;79.10
6948;DHT22;3513;47.664;9.162;2023-03-21T10:37:02;15.80;77.10
6948;DHT22;3513;47.664;9.162;2023-03-21T10:39:38;15.90;76.80
6948;DHT22;3513;47.664;9.162;2023-03-21T10:42:04;16.00;74.40
6948;DHT22;3513;47.664;9.162;2023-03-21T10:44:34;15.80;72.60
6948;DHT22;3513;47.664;9.162;2023-03-21T10:47:05;15.60;73.40
6948;DHT22;3513;47.664;9.162;2023-03-21T10:49:32;15.30;73.80
6948;DHT22;3513;47.664;9.162;2023-03-21T10:52:02;15.20;74.90
6948;DHT22;3513;47.664;9.162;2023-03-21T10:54:30;15.10;75.70
6948;DHT22;3513;47.664;9.162;2023-03-21T10:57:05;14.80;75.10
6948;DHT22;3513;47.664;9.162;2023-03-21T11:02:46;14.60;77.00
6948;DHT22;3513;47.664;9.162;2023-03-21T11:05:32;14.60;78.30
6948;DHT22;3513;47.664;9.162;2023-03-21T11:08:05;14.70;78.10
6948;DHT22;3513;47.664;9.162;2023-03-21T11:10:37;14.80;78.40
6948;DHT22;3513;47.664;9.162;2023-03-21T11:13:07;14.90;76.10
6948;DHT22;3513;47.664;9.162;2023-03-21T11:18:22;15.00;75.70
6948;DHT22;3513;47.664;9.162;2023-03-21T11:20:51;15.00;75.00
6948;DHT22;3513;47.664;9.162;2023-03-21T11:23:18;15.00;76.00
6948;DHT22;3513;47.664;9.162;2023-03-21T11:25:49;14.60;75.20
6948;DHT22;3513;47.664;9.162;2023-03-21T11:28:19;14.50;76.60
6948;DHT22;3513;47.664;9.162;2023-03-21T11:30:54;14.40;75.90
6948;DHT22;3513;47.664;9.162;2023-03-21T11:33:22;14.60;76.00
6948;DHT22;3513;47.664;9.162;2023-03-21T11:38:37;14.90;74.40
6948;DHT22;3513;47.664;9.162;2023-03-21T11:41:03;15.00;74.80
6948;DHT22;3513;47.664;9.162;2023-03-21T11:43:38;15.00;73.70
6948;DHT22;3513;47.664;9.162;2023-03-21T11:46:07;15.00;73.40
6948;DHT22;3513;47.664;9.162;2023-03-21T11:48:37;15.00;73.10
6948;DHT22;3513;47.664;9.162;2023-03-21T11:51:21;14.80;73.60
6948;DHT22;3513;47.664;9.162;2023-03-21T11:56:31;14.70;75.20
6948;DHT22;3513;47.664;9.162;2023-03-21T12:04:46;14.90;73.10
6948;DHT22;3513;47.664;9.162;2023-03-21T12:18:16;15.60;71.30
6948;DHT22;3513;47.664;9.162;2023-03-21T12:21:10;15.80;69.30
6948;DHT22;3513;47.664;9.162;2023-03-21T12:24:19;15.90;68.60
6948;DHT22;3513;47.664;9.162;2023-03-21T12:26:59;16.00;68.00
6948;DHT22;3513;47.664;9.162;2023-03-21T12:38:13;16.50;67.50
6948;DHT22;3513;47.664;9.162;2023-03-21T12:41:04;16.60;65.40
6948;DHT22;3513;47.664;9.162;2023-03-21T12:43:45;16.70;65.30
6948;DHT22;3513;47.664;9.162;2023-03-21T12:46:23;16.60;64.00
6948;DHT22;3513;47.664;9.162;2023-03-21T12:51:42;16.60;64.70
6948;DHT22;3513;47.664;9.162;2023-03-21T12:54:22;16.80;65.00
6948;DHT22;3513;47.664;9.162;2023-03-21T12:57:24;16.80;63.80
6948;DHT22;3513;47.664;9.162;2023-03-21T13:02:59;17.10;63.50
6948;DHT22;3513;47.664;9.162;2023-03-21T13:05:39;17.50;62.80
6948;DHT22;3513;47.664;9.162;2023-03-21T13:08:12;17.80;60.70
6948;DHT22;3513;47.664;9.162;2023-03-21T13:10:43;17.90;60.60
6948;DHT22;3513;47.664;9.162;2023-03-21T13:21:18;18.50;58.40
6948;DHT22;3513;47.664;9.162;2023-03-21T13:26:35;18.40;57.90
6948;DHT22;3513;47.664;9.162;2023-03-21T13:29:20;18.50;57.50
6948;DHT22;3513;47.664;9.162;2023-03-21T13:31:49;18.50;57.70
6948;DHT22;3513;47.664;9.162;2023-03-21T13:34:15;18.70;57.60
6948;DHT22;3513;47.664;9.162;2023-03-21T13:36:44;18.80;57.00
6948;DHT22;3513;47.664;9.162;2023-03-21T13:39:23;18.70;56.70
6948;DHT22;3513;47.664;9.162;2023-03-21T13:41:50;18.90;56.90
6948;DHT22;3513;47.664;9.162;2023-03-21T13:47:05;18.80;58.10
6948;DHT22;3513;47.664;9.162;2023-03-21T13:58:49;20.10;55.60
6948;DHT22;3513;47.664;9.162;2023-03-21T14:03:48;20.50;54.20
6948;DHT22;3513;47.664;9.162;2023-03-21T14:06:15;20.50;54.10
6948;DHT22;3513;47.664;9.162;2023-03-21T14:08:45;20.50;53.90
6948;DHT22;3513;47.664;9.162;2023-03-21T14:11:15;20.30;53.70
6948;DHT22;3513;47.664;9.162;2023-03-21T14:13:43;20.10;54.20
6948;DHT22;3513;47.664;9.162;2023-03-21T14:16:12;20.00;55.00
6948;DHT22;3513;47.664;9.162;2023-03-21T14:18:52;19.80;55.00
6948;DHT22;3513;47.664;9.162;2023-03-21T14:21:44;19.80;55.30
6948;DHT22;3513;47.664;9.162;2023-03-21T14:24:13;19.80;55.50
6948;DHT22;3513;47.664;9.162;2023-03-21T14:26:49;20.00;55.20
6948;DHT22;3513;47.664;9.162;2023-03-21T14:29:30;20.30;54.70
6948;DHT22;3513;47.664;9.162;2023-03-21T14:31:58;20.60;53.50
6948;DHT22;3513;47.664;9.162;2023-03-21T14:34:26;20.80;52.80
6948;DHT22;3513;47.664;9.162;2023-03-21T14:36:52;21.10;52.80
6948;DHT22;3513;47.664;9.162;2023-03-21T14:39:25;21.30;51.80
6948;DHT22;3513;47.664;9.162;2023-03-21T14:41:53;21.50;51.30
6948;DHT22;3513;47.664;9.162;2023-03-21T14:44:25;21.80;51.20
6948;DHT22;3513;47.664;9.162;2023-03-21T14:47:17;22.00;49.40
6948;DHT22;3513;47.664;9.162;2023-03-21T14:49:43;22.20;50.00
6948;DHT22;3513;47.664;9.162;2023-03-21T14:52:16;22.20;49.30
6948;DHT22;3513;47.664;9.162;2023-03-21T14:54:46;22.20;49.00
6948;DHT22;3513;47.664;9.162;2023-03-21T14:57:15;22.20;48.60
6948;DHT22;3513;47.664;9.162;2023-03-21T14:59:43;22.00;48.40
6948;DHT22;3513;47.664;9.162;2023-03-21T15:02:17;21.60;48.70
6948;DHT22;3513;47.664;9.162;2023-03-21T15:04:45;21.10;49.80
6948;DHT22;3513;47.664;9.162;2023-03-21T15:07:27;20.70;50.60
6948;DHT22;3513;47.664;9.162;2023-03-21T15:09:56;20.40;51.20
6948;DHT22;3513;47.664;9.162;2023-03-21T15:12:22;20.20;51.70
6948;DHT22;3513;47.664;9.162;2023-03-21T15:14:48;20.00;52.40
6948;DHT22;3513;47.664;9.162;2023-03-21T15:17:14;19.80;52.70
6948;DHT22;3513;47.664;9.162;2023-03-21T15:19:40;19.50;52.50
6948;DHT22;3513;47.664;9.162;2023-03-21T15:22:30;19.30;53.20
6948;DHT22;3513;47.664;9.162;2023-03-21T15:25:02;19.00;53.60
6948;DHT22;3513;47.664;9.162;2023-03-21T15:27:31;18.80;54.10
6948;DHT22;3513;47.664;9.162;2023-03-21T15:29:57;18.60;54.30
6948;DHT22;3513;47.664;9.162;2023-03-21T15:32:25;18.40;54.80
6948;DHT22;3513;47.664;9.162;2023-03-21T15:35:07;18.20;55.30
6948;DHT22;3513;47.664;9.162;2023-03-21T15:37:37;18.00;55.70
6948;DHT22;3513;47.664;9.162;2023-03-21T15:40:19;17.90;56.00
6948;DHT22;3513;47.664;9.162;2023-03-21T15:42:45;17.60;56.00
6948;DHT22;3513;47.664;9.162;2023-03-21T15:45:25;17.40;56.70
6948;DHT22;3513;47.664;9.162;2023-03-21T15:47:55;17.20;57.40
6948;DHT22;3513;47.664;9.162;2023-03-21T15:50:27;17.10;58.20
6948;DHT22;3513;47.664;9.162;2023-03-21T15:52:55;17.00;58.70
6948;DHT22;3513;47.664;9.162;2023-03-21T15:55:26;17.00;59.20
6948;DHT22;3513;47.664;9.162;2023-03-21T15:57:58;16.90;59.50
6948;DHT22;3513;47.664;9.162;2023-03-21T16:00:39;16.90;59.70
6948;DHT22;3513;47.664;9.162;2023-03-21T16:03:12;16.80;60.00
6948;DHT22;3513;47.664;9.162;2023-03-21T16:05:41;16.90;60.10
6948;DHT22;3513;47.664;9.162;2023-03-21T16:08:22;16.90;60.00
6948;DHT22;3513;47.664;9.162;2023-03-21T16:10:51;17.00;60.20
6948;DHT22;3513;47.664;9.162;2023-03-21T16:13:17;17.10;60.30
6948;DHT22;3513;47.664;9.162;2023-03-21T16:15:43;17.10;60.50
6948;DHT22;3513;47.664;9.162;2023-03-21T16:18:13;17.10;60.60
6948;DHT22;3513;47.664;9.162;2023-03-21T16:20:42;17.10;60.50
6948;DHT22;3513;47.664;9.162;2023-03-21T16:23:11;17.10;60.50
6948;DHT22;3513;47.664;9.162;2023-03-21T16:25:38;17.00;60.60
6948;DHT22;3513;47.664;9.162;2023-03-21T16:28:05;16.90;61.10
6948;DHT22;3513;47.664;9.162;2023-03-21T16:30:34;16.80;61.40
6948;DHT22;3513;47.664;9.162;2023-03-21T16:33:01;16.70;61.40
6948;DHT22;3513;47.664;9.162;2023-03-21T16:35:27;16.50;61.70
6948;DHT22;3513;47.664;9.162;2023-03-21T16:37:53;16.40;62.30
6948;DHT22;3513;47.664;9.162;2023-03-21T16:40:29;16.30;62.70
6948;DHT22;3513;47.664;9.162;2023-03-21T16:42:55;16.10;63.70
6948;DHT22;3513;47.664;9.162;2023-03-21T16:45:21;15.90;63.20
6948;DHT22;3513;47.664;9.162;2023-03-21T16:47:48;15.80;64.00
6948;DHT22;3513;47.664;9.162;2023-03-21T16:50:25;15.60;64.30
6948;DHT22;3513;47.664;9.162;2023-03-21T16:52:53;15.50;64.90
6948;DHT22;3513;47.664;9.162;2023-03-21T16:55:19;15.20;65.30
6948;DHT22;3513;47.664;9.162;2023-03-21T16:57:45;15.10;66.10
6948;DHT22;3513;47.664;9.162;2023-03-21T17:00:13;14.90;66.50
6948;DHT22;3513;47.664;9.162;2023-03-21T17:02:41;14.80;67.10
6948;DHT22;3513;47.664;9.162;2023-03-21T17:05:07;14.70;67.60
6948;DHT22;3513;47.664;9.162;2023-03-21T17:07:36;14.50;68.10
6948;DHT22;3513;47.664;9.162;2023-03-21T17:10:01;14.40;68.60
6948;DHT22;3513;47.664;9.162;2023-03-21T17:12:27;14.20;69.00
6948;DHT22;3513;47.664;9.162;2023-03-21T17:14:52;14.10;69.70
6948;DHT22;3513;47.664;9.162;2023-03-21T17:17:18;14.00;70.30
6948;DHT22;3513;47.664;9.162;2023-03-21T17:19:44;13.90;70.70
6948;DHT22;3513;47.664;9.162;2023-03-21T17:22:10;13.80;71.20
6948;DHT22;3513;47.664;9.162;2023-03-21T17:24:36;13.70;71.80
6948;DHT22;3513;47.664;9.162;2023-03-21T17:27:03;13.60;73.20
6948;DHT22;3513;47.664;9.162;2023-03-21T17:29:29;13.50;72.90
6948;DHT22;3513;47.664;9.162;2023-03-21T17:31:55;13.40;73.60
6948;DHT22;3513;47.664;9.162;2023-03-21T17:34:20;13.20;74.10
6948;DHT22;3513;47.664;9.162;2023-03-21T17:36:46;13.20;74.80
6948;DHT22;3513;47.664;9.162;2023-03-21T17:39:22;13.10;75.20
6948;DHT22;3513;47.664;9.162;2023-03-21T17:41:49;13.10;75.80
6948;DHT22;3513;47.664;9.162;2023-03-21T17:44:16;13.00;76.50
6948;DHT22;3513;47.664;9.162;2023-03-21T17:46:42;12.90;76.70
6948;DHT22;3513;47.664;9.162;2023-03-21T17:49:10;12.80;77.10
6948;DHT22;3513;47.664;9.162;2023-03-21T17:51:37;12.80;77.60
6948;DHT22;3513;47.664;9.162;2023-03-21T17:54:03;12.70;78.00
6948;DHT22;3513;47.664;9.162;2023-03-21T17:56:32;12.60;78.30
6948;DHT22;3513;47.664;9.162;2023-03-21T17:59:00;12.60;78.90
6948;DHT22;3513;47.664;9.162;2023-03-21T18:01:26;12.50;79.40